sensor_id;sensor_type;location;lat;lon;timestamp;temperature;humidity
64689;DHT22;62504;46.070;14.492;2023-05-29T00:00:55;17.50;99.90
64689;DHT22;62504;46.070;14.492;2023-05-29T00:03:21;17.50;99.90
64689;DHT22;62504;46.070;14.492;2023-05-29T00:05:47;17.50;99.90
64689;DHT22;62504;46.070;14.492;2023-05-29T00:08:12;17.40;99.90
64689;DHT22;62504;46.070;14.492;2023-05-29T00:10:38;17.40;99.90
64689;DHT22;62504;46.070;14.492;2023-05-29T00:13:04;17.30;99.90
64689;DHT22;62504;46.070;14.492;2023-05-29T00:15:29;17.40;99.90
64689;DHT22;62504;46.070;14.492;2023-05-29T00:17:56;17.30;99.90
64689;DHT22;62504;46.070;14.492;2023-05-29T00:20:21;17.30;99.90
64689;DHT22;62504;46.070;14.492;2023-05-29T00:22:47;17.40;99.90
64689;DHT22;62504;46.070;14.492;2023-05-29T00:25:14;17.30;99.90
64689;DHT22;62504;46.070;14.492;2023-05-29T00:27:40;17.20;99.90
64689;DHT22;62504;46.070;14.492;2023-05-29T00:30:06;17.30;99.90
64689;DHT22;62504;46.070;14.492;2023-05-29T00:32:32;17.10;99.90
64689;DHT22;62504;46.070;14.492;2023-05-29T00:34:58;17.30;99.90
64689;DHT22;62504;46.070;14.492;2023-05-29T00:37:24;17.10;99.90
64689;DHT22;62504;46.070;14.492;2023-05-29T00:39:50;17.10;99.90
64689;DHT22;62504;46.070;14.492;2023-05-29T00:42:15;16.90;99.90
64689;DHT22;62504;46.070;14.492;2023-05-29T00:44:41;16.90;99.90
64689;DHT22;62504;46.070;14.492;2023-05-29T00:47:07;16.80;99.90
64689;DHT22;62504;46.070;14.492;2023-05-29T00:49:35;16.80;99.90
64689;DHT22;62504;46.070;14.492;2023-05-29T00:52:02;16.80;99.90
64689;DHT22;62504;46.070;14.492;2023-05-29T00:54:29;16.80;99.90
64689;DHT22;62504;46.070;14.492;2023-05-29T00:56:57;16.90;99.90
64689;DHT22;62504;46.070;14.492;2023-05-29T00:59:23;17.00;99.90
64689;DHT22;62504;46.070;14.492;2023-05-29T01:01:50;17.00;99.90
64689;DHT22;62504;46.070;14.492;2023-05-29T01:04:17;17.00;99.90
64689;DHT22;62504;46.070;14.492;2023-05-29T01:06:43;17.00;99.90
64689;DHT22;62504;46.070;14.492;2023-05-29T01:09:10;16.90;99.90
64689;DHT22;62504;46.070;14.492;2023-05-29T01:12:14;16.80;99.90
64689;DHT22;62504;46.070;14.492;2023-05-29T01:17:54;16.70;99.90
64689;DHT22;62504;46.070;14.492;2023-05-29T01:20:42;16.60;99.90
64689;DHT22;62504;46.070;14.492;2023-05-29T01:28:41;16.80;99.90
64689;DHT22;62504;46.070;14.492;2023-05-29T01:31:09;16.60;99.90
64689;DHT22;62504;46.070;14.492;2023-05-29T01:33:39;16.70;99.90
64689;DHT22;62504;46.070;14.492;2023-05-29T01:36:09;16.70;99.90
64689;DHT22;62504;46.070;14.492;2023-05-29T01:38:36;16.60;99.90
64689;DHT22;62504;46.070;14.492;2023-05-29T01:41:03;16.40;99.90
64689;DHT22;62504;46.070;14.492;2023-05-29T01:43:48;16.40;99.90
64689;DHT22;62504;46.070;14.492;2023-05-29T01:46:14;16.40;99.90
64689;DHT22;62504;46.070;14.492;2023-05-29T01:48:44;16.60;99.90
64689;DHT22;62504;46.070;14.492;2023-05-29T01:51:10;16.60;99.90
64689;DHT22;62504;46.070;14.492;2023-05-29T01:53:37;16.60;99.90
64689;DHT22;62504;46.070;14.492;2023-05-29T01:56:05;16.70;99.90
64689;DHT22;62504;46.070;14.492;2023-05-29T01:58:32;16.70;99.90
64689;DHT22;62504;46.070;14.492;2023-05-29T02:01:00;16.70;99.90
64689;DHT22;62504;46.070;14.492;2023-05-29T02:03:26;16.50;99.90
64689;DHT22;62504;46.070;14.492;2023-05-29T02:05:55;16.50;99.90
64689;DHT22;62504;46.070;14.492;2023-05-29T02:08:21;16.40;99.90
64689;DHT22;62504;46.070;14.492;2023-05-29T02:10:47;16.20;99.90
64689;DHT22;62504;46.070;14.492;2023-05-29T02:13:12;16.10;99.90
64689;DHT22;62504;46.070;14.492;2023-05-29T02:15:48;16.10;99.90
64689;DHT22;62504;46.070;14.492;2023-05-29T02:18:32;16.10;99.90
64689;DHT22;62504;46.070;14.492;2023-05-29T02:20:59;16.20;99.90
64689;DHT22;62504;46.070;14.492;2023-05-29T02:23:25;16.10;99.90
64689;DHT22;62504;46.070;14.492;2023-05-29T02:25:51;16.10;99.90
64689;DHT22;62504;46.070;14.492;2023-05-29T02:28:16;16.20;99.90
64689;DHT22;62504;46.070;14.492;2023-05-29T02:30:42;16.20;99.90
64689;DHT22;62504;46.070;14.492;2023-05-29T02:33:08;16.10;99.90
64689;DHT22;62504;46.070;14.492;2023-05-29T02:35:34;16.20;99.90
64689;DHT22;62504;46.070;14.492;2023-05-29T02:38:00;16.20;99.90
64689;DHT22;62504;46.070;14.492;2023-05-29T02:40:25;16.20;99.90
64689;DHT22;62504;46.070;14.492;2023-05-29T02:42:51;16.40;99.90
64689;DHT22;62504;46.070;14.492;2023-05-29T02:45:17;16.40;99.90
64689;DHT22;62504;46.070;14.492;2023-05-29T02:47:43;16.40;99.90
64689;DHT22;62504;46.070;14.492;2023-05-29T02:50:09;16.40;99.90
64689;DHT22;62504;46.070;14.492;2023-05-29T02:52:35;16.30;99.90
64689;DHT22;62504;46.070;14.492;2023-05-29T02:55:02;16.40;99.90
64689;DHT22;62504;46.070;14.492;2023-05-29T02:57:29;16.20;99.90
64689;DHT22;62504;46.070;14.492;2023-05-29T02:59:55;16.20;99.90
64689;DHT22;62504;46.070;14.492;2023-05-29T03:02:20;16.20;99.90
64689;DHT22;62504;46.070;14.492;2023-05-29T03:05:19;16.10;99.90
64689;DHT22;62504;46.070;14.492;2023-05-29T03:07:44;16.10;99.90
64689;DHT22;62504;46.070;14.492;2023-05-29T03:10:10;16.00;99.90
64689;DHT22;62504;46.070;14.492;2023-05-29T03:12:36;16.00;99.90
64689;DHT22;62504;46.070;14.492;2023-05-29T03:15:20;15.90;99.90
64689;DHT22;62504;46.070;14.492;2023-05-29T03:17:49;15.80;99.90
64689;DHT22;62504;46.070;14.492;2023-05-29T03:20:14;15.80;99.90
64689;DHT22;62504;46.070;14.492;2023-05-29T03:22:47;15.60;99.90
64689;DHT22;62504;46.070;14.492;2023-05-29T03:25:13;15.70;99.90
64689;DHT22;62504;46.070;14.492;2023-05-29T03:27:39;15.80;99.90
64689;DHT22;62504;46.070;14.492;2023-05-29T03:30:05;15.70;99.90
64689;DHT22;62504;46.070;14.492;2023-05-29T03:32:30;15.80;99.90
64689;DHT22;62504;46.070;14.492;2023-05-29T03:34:56;15.70;99.90
64689;DHT22;62504;46.070;14.492;2023-05-29T03:37:23;15.40;99.90
64689;DHT22;62504;46.070;14.492;2023-05-29T03:39:48;15.40;99.90
64689;DHT22;62504;46.070;14.492;2023-05-29T03:42:14;15.40;99.90
64689;DHT22;62504;46.070;14.492;2023-05-29T03:44:41;15.50;99.90
64689;DHT22;62504;46.070;14.492;2023-05-29T03:47:06;15.40;99.90
64689;DHT22;62504;46.070;14.492;2023-05-29T03:49:34;15.50;99.90
64689;DHT22;62504;46.070;14.492;2023-05-29T03:52:00;15.40;99.90
64689;DHT22;62504;46.070;14.492;2023-05-29T03:54:25;15.30;99.90
64689;DHT22;62504;46.070;14.492;2023-05-29T03:57:09;15.40;99.90
64689;DHT22;62504;46.070;14.492;2023-05-29T03:59:35;15.40;99.90
64689;DHT22;62504;46.070;14.492;2023-05-29T04:02:01;15.50;99.90
64689;DHT22;62504;46.070;14.492;2023-05-29T04:04:26;15.60;99.90
64689;DHT22;62504;46.070;14.492;2023-05-29T04:06:52;15.70;99.90
64689;DHT22;62504;46.070;14.492;2023-05-29T04:09:23;15.70;99.90
64689;DHT22;62504;46.070;14.492;2023-05-29T04:11:48;15.60;99.90
64689;DHT22;62504;46.070;14.492;2023-05-29T04:14:14;15.70;99.90
64689;DHT22;62504;46.070;14.492;2023-05-29T04:17:00;15.90;99.90
64689;DHT22;62504;46.070;14.492;2023-05-29T04:19:26;15.90;99.90
64689;DHT22;62504;46.070;14.492;2023-05-29T04:21:51;16.00;99.90
64689;DHT22;62504;46.070;14.492;2023-05-29T04:24:17;16.00;99.90
64689;DHT22;62504;46.070;14.492;2023-05-29T04:26:42;15.90;99.90
64689;DHT22;62504;46.070;14.492;2023-05-29T04:29:08;15.80;99.90
64689;DHT22;62504;46.070;14.492;2023-05-29T04:31:34;15.70;99.90
64689;DHT22;62504;46.070;14.492;2023-05-29T04:34:02;15.80;99.90
64689;DHT22;62504;46.070;14.492;2023-05-29T04:36:29;16.00;99.90
64689;DHT22;62504;46.070;14.492;2023-05-29T04:38:58;16.10;99.90
64689;DHT22;62504;46.070;14.492;2023-05-29T04:41:24;16.30;99.90
64689;DHT22;62504;46.070;14.492;2023-05-29T04:43:53;16.40;99.90
64689;DHT22;62504;46.070;14.492;2023-05-29T04:46:20;16.50;99.90
64689;DHT22;62504;46.070;14.492;2023-05-29T04:48:46;16.50;99.90
64689;DHT22;62504;46.070;14.492;2023-05-29T04:51:11;16.60;99.90
64689;DHT22;62504;46.070;14.492;2023-05-29T04:53:41;16.50;99.90
64689;DHT22;62504;46.070;14.492;2023-05-29T04:56:06;16.50;99.90
64689;DHT22;62504;46.070;14.492;2023-05-29T04:58:58;16.60;99.90
64689;DHT22;62504;46.070;14.492;2023-05-29T05:01:24;16.50;99.90
64689;DHT22;62504;46.070;14.492;2023-05-29T05:03:51;16.70;99.90
64689;DHT22;62504;46.070;14.492;2023-05-29T05:06:19;16.60;99.90
64689;DHT22;62504;46.070;14.492;2023-05-29T05:08:45;16.60;99.90
64689;DHT22;62504;46.070;14.492;2023-05-29T05:11:11;16.70;99.90
64689;DHT22;62504;46.070;14.492;2023-05-29T05:13:36;16.70;99.90
64689;DHT22;62504;46.070;14.492;2023-05-29T05:16:02;16.60;99.90
64689;DHT22;62504;46.070;14.492;2023-05-29T05:18:28;16.70;99.90
64689;DHT22;62504;46.070;14.492;2023-05-29T05:20:54;16.80;99.90
64689;DHT22;62504;46.070;14.492;2023-05-29T05:23:19;16.80;99.90
64689;DHT22;62504;46.070;14.492;2023-05-29T05:25:45;16.90;99.90
64689;DHT22;62504;46.070;14.492;2023-05-29T05:28:11;17.00;99.90
64689;DHT22;62504;46.070;14.492;2023-05-29T05:30:36;17.10;99.90
64689;DHT22;62504;46.070;14.492;2023-05-29T05:33:02;17.20;99.90
64689;DHT22;62504;46.070;14.492;2023-05-29T05:35:29;17.30;99.90
64689;DHT22;62504;46.070;14.492;2023-05-29T05:37:54;17.30;99.90
64689;DHT22;62504;46.070;14.492;2023-05-29T05:40:23;17.40;99.90
64689;DHT22;62504;46.070;14.492;2023-05-29T05:42:49;17.40;99.90
64689;DHT22;62504;46.070;14.492;2023-05-29T05:45:15;17.40;99.90
64689;DHT22;62504;46.070;14.492;2023-05-29T05:47:40;17.30;99.90
64689;DHT22;62504;46.070;14.492;2023-05-29T05:50:06;17.40;99.90
64689;DHT22;62504;46.070;14.492;2023-05-29T05:52:32;17.50;99.90
64689;DHT22;62504;46.070;14.492;2023-05-29T05:54:59;17.50;99.90
64689;DHT22;62504;46.070;14.492;2023-05-29T05:57:24;17.50;99.90
64689;DHT22;62504;46.070;14.492;2023-05-29T05:59:51;17.70;99.90
64689;DHT22;62504;46.070;14.492;2023-05-29T06:02:16;17.80;99.90
64689;DHT22;62504;46.070;14.492;2023-05-29T06:04:42;18.00;99.90
64689;DHT22;62504;46.070;14.492;2023-05-29T06:07:08;18.20;99.90
64689;DHT22;62504;46.070;14.492;2023-05-29T06:09:34;18.20;99.90
64689;DHT22;62504;46.070;14.492;2023-05-29T06:12:00;18.30;99.90
64689;DHT22;62504;46.070;14.492;2023-05-29T06:14:26;18.30;99.90
64689;DHT22;62504;46.070;14.492;2023-05-29T06:16:51;18.30;99.90
64689;DHT22;62504;46.070;14.492;2023-05-29T06:19:17;18.40;99.90
64689;DHT22;62504;46.070;14.492;2023-05-29T06:21:43;18.50;99.90
64689;DHT22;62504;46.070;14.492;2023-05-29T06:24:08;18.60;99.90
64689;DHT22;62504;46.070;14.492;2023-05-29T06:26:35;18.70;99.90
64689;DHT22;62504;46.070;14.492;2023-05-29T06:29:01;18.70;99.90
64689;DHT22;62504;46.070;14.492;2023-05-29T06:31:27;18.80;99.90
64689;DHT22;62504;46.070;14.492;2023-05-29T06:33:52;18.80;99.90
64689;DHT22;62504;46.070;14.492;2023-05-29T06:36:18;19.00;99.90
64689;DHT22;62504;46.070;14.492;2023-05-29T06:38:50;19.00;99.90
64689;DHT22;62504;46.070;14.492;2023-05-29T06:41:16;19.10;99.90
64689;DHT22;62504;46.070;14.492;2023-05-29T06:43:42;19.10;99.90
64689;DHT22;62504;46.070;14.492;2023-05-29T06:46:07;19.30;99.90
64689;DHT22;62504;46.070;14.492;2023-05-29T06:48:34;19.30;99.90
64689;DHT22;62504;46.070;14.492;2023-05-29T06:51:03;19.40;99.90
64689;DHT22;62504;46.070;14.492;2023-05-29T06:53:37;19.20;99.90
64689;DHT22;62504;46.070;14.492;2023-05-29T06:56:04;19.30;99.90
64689;DHT22;62504;46.070;14.492;2023-05-29T06:58:30;19.60;99.90
64689;DHT22;62504;46.070;14.492;2023-05-29T07:00:57;19.60;99.90
64689;DHT22;62504;46.070;14.492;2023-05-29T07:03:23;19.80;99.90
64689;DHT22;62504;46.070;14.492;2023-05-29T07:05:49;20.00;99.90
64689;DHT22;62504;46.070;14.492;2023-05-29T07:08:14;19.90;99.90
64689;DHT22;62504;46.070;14.492;2023-05-29T07:10:40;20.10;99.90
64689;DHT22;62504;46.070;14.492;2023-05-29T07:13:06;20.10;99.90
64689;DHT22;62504;46.070;14.492;2023-05-29T07:15:32;20.50;99.90
64689;DHT22;62504;46.070;14.492;2023-05-29T07:17:57;20.50;99.90
64689;DHT22;62504;46.070;14.492;2023-05-29T07:20:23;20.40;99.90
64689;DHT22;62504;46.070;14.492;2023-05-29T07:22:48;20.40;99.90
64689;DHT22;62504;46.070;14.492;2023-05-29T07:25:14;20.40;99.90
64689;DHT22;62504;46.070;14.492;2023-05-29T07:27:40;20.50;99.90
64689;DHT22;62504;46.070;14.492;2023-05-29T07:30:06;20.70;99.90
64689;DHT22;62504;46.070;14.492;2023-05-29T07:32:32;21.00;99.90
64689;DHT22;62504;46.070;14.492;2023-05-29T07:34:58;21.30;99.90
64689;DHT22;62504;46.070;14.492;2023-05-29T07:37:24;21.70;99.90
64689;DHT22;62504;46.070;14.492;2023-05-29T07:39:49;21.70;99.90
64689;DHT22;62504;46.070;14.492;2023-05-29T07:42:15;21.70;99.90
64689;DHT22;62504;46.070;14.492;2023-05-29T07:44:41;21.90;99.90
64689;DHT22;62504;46.070;14.492;2023-05-29T07:47:08;22.70;99.90
64689;DHT22;62504;46.070;14.492;2023-05-29T07:49:34;23.60;99.90
64689;DHT22;62504;46.070;14.492;2023-05-29T07:52:01;23.60;99.90
64689;DHT22;62504;46.070;14.492;2023-05-29T07:54:27;24.30;99.90
64689;DHT22;62504;46.070;14.492;2023-05-29T07:56:53;25.40;99.90
64689;DHT22;62504;46.070;14.492;2023-05-29T07:59:18;23.90;99.90
64689;DHT22;62504;46.070;14.492;2023-05-29T08:01:44;23.80;99.90
64689;DHT22;62504;46.070;14.492;2023-05-29T08:04:10;23.60;99.90
64689;DHT22;62504;46.070;14.492;2023-05-29T08:06:36;22.90;99.90
64689;DHT22;62504;46.070;14.492;2023-05-29T08:09:02;22.80;99.90
64689;DHT22;62504;46.070;14.492;2023-05-29T08:11:28;22.80;99.90
64689;DHT22;62504;46.070;14.492;2023-05-29T08:13:54;22.30;99.90
64689;DHT22;62504;46.070;14.492;2023-05-29T08:16:20;22.30;99.90
64689;DHT22;62504;46.070;14.492;2023-05-29T08:18:47;22.30;99.90
64689;DHT22;62504;46.070;14.492;2023-05-29T08:21:13;22.40;99.90
64689;DHT22;62504;46.070;14.492;2023-05-29T08:23:39;22.50;99.90
64689;DHT22;62504;46.070;14.492;2023-05-29T08:26:04;22.70;99.90
64689;DHT22;62504;46.070;14.492;2023-05-29T08:28:30;22.70;99.90
64689;DHT22;62504;46.070;14.492;2023-05-29T08:30:56;22.60;99.90
64689;DHT22;62504;46.070;14.492;2023-05-29T08:33:21;22.60;99.90
64689;DHT22;62504;46.070;14.492;2023-05-29T08:35:47;22.50;99.90
64689;DHT22;62504;46.070;14.492;2023-05-29T08:38:13;22.50;99.90
64689;DHT22;62504;46.070;14.492;2023-05-29T08:40:39;22.40;99.90
64689;DHT22;62504;46.070;14.492;2023-05-29T08:43:21;22.60;99.90
64689;DHT22;62504;46.070;14.492;2023-05-29T08:45:51;22.60;99.90
64689;DHT22;62504;46.070;14.492;2023-05-29T08:48:19;22.70;99.90
64689;DHT22;62504;46.070;14.492;2023-05-29T08:50:48;22.80;99.90
64689;DHT22;62504;46.070;14.492;2023-05-29T08:53:16;22.70;99.90
64689;DHT22;62504;46.070;14.492;2023-05-29T08:55:44;22.80;99.90
64689;DHT22;62504;46.070;14.492;2023-05-29T08:58:17;22.90;99.90
64689;DHT22;62504;46.070;14.492;2023-05-29T09:00:45;22.90;99.90
64689;DHT22;62504;46.070;14.492;2023-05-29T09:03:11;22.90;99.90
64689;DHT22;62504;46.070;14.492;2023-05-29T09:05:39;22.90;99.90
64689;DHT22;62504;46.070;14.492;2023-05-29T09:08:06;22.90;99.90
64689;DHT22;62504;46.070;14.492;2023-05-29T09:10:32;23.10;99.90
64689;DHT22;62504;46.070;14.492;2023-05-29T09:12:58;23.10;99.90
64689;DHT22;62504;46.070;14.492;2023-05-29T09:15:24;23.00;99.90
64689;DHT22;62504;46.070;14.492;2023-05-29T09:17:55;23.10;99.90
64689;DHT22;62504;46.070;14.492;2023-05-29T09:20:23;23.10;99.90
64689;DHT22;62504;46.070;14.492;2023-05-29T09:23:00;23.30;99.90
64689;DHT22;62504;46.070;14.492;2023-05-29T09:25:28;23.20;99.90
64689;DHT22;62504;46.070;14.492;2023-05-29T09:27:57;23.20;99.90
64689;DHT22;62504;46.070;14.492;2023-05-29T09:30:40;23.30;99.90
64689;DHT22;62504;46.070;14.492;2023-05-29T09:33:11;23.30;99.90
64689;DHT22;62504;46.070;14.492;2023-05-29T09:35:45;23.10;99.90
64689;DHT22;62504;46.070;14.492;2023-05-29T09:38:12;23.20;99.80
64689;DHT22;62504;46.070;14.492;2023-05-29T09:40:39;23.30;99.90
64689;DHT22;62504;46.070;14.492;2023-05-29T09:43:16;23.40;99.50
64689;DHT22;62504;46.070;14.492;2023-05-29T09:45:51;23.40;98.70
64689;DHT22;62504;46.070;14.492;2023-05-29T09:48:22;23.40;98.10
64689;DHT22;62504;46.070;14.492;2023-05-29T09:50:48;23.50;97.50
64689;DHT22;62504;46.070;14.492;2023-05-29T09:53:21;23.50;98.10
64689;DHT22;62504;46.070;14.492;2023-05-29T09:55:50;23.50;97.50
64689;DHT22;62504;46.070;14.492;2023-05-29T09:58:18;23.40;97.80
64689;DHT22;62504;46.070;14.492;2023-05-29T10:00:44;23.50;97.60
64689;DHT22;62504;46.070;14.492;2023-05-29T10:03:13;23.50;98.10
64689;DHT22;62504;46.070;14.492;2023-05-29T10:05:40;23.60;96.30
64689;DHT22;62504;46.070;14.492;2023-05-29T10:08:12;23.70;95.00
64689;DHT22;62504;46.070;14.492;2023-05-29T10:10:43;23.70;95.30
64689;DHT22;62504;46.070;14.492;2023-05-29T10:13:13;23.80;94.30
64689;DHT22;62504;46.070;14.492;2023-05-29T10:15:41;23.80;95.00
64689;DHT22;62504;46.070;14.492;2023-05-29T10:18:26;23.80;94.50
64689;DHT22;62504;46.070;14.492;2023-05-29T10:20:54;23.70;94.00
64689;DHT22;62504;46.070;14.492;2023-05-29T10:23:23;23.70;93.70
64689;DHT22;62504;46.070;14.492;2023-05-29T10:25:53;23.90;93.70
64689;DHT22;62504;46.070;14.492;2023-05-29T10:28:22;23.80;93.60
64689;DHT22;62504;46.070;14.492;2023-05-29T10:30:55;23.70;92.60
64689;DHT22;62504;46.070;14.492;2023-05-29T10:33:35;23.70;93.60
64689;DHT22;62504;46.070;14.492;2023-05-29T10:36:12;23.60;94.40
64689;DHT22;62504;46.070;14.492;2023-05-29T10:38:41;23.80;93.20
64689;DHT22;62504;46.070;14.492;2023-05-29T10:43:56;23.80;90.70
64689;DHT22;62504;46.070;14.492;2023-05-29T10:49:21;23.90;92.20
64689;DHT22;62504;46.070;14.492;2023-05-29T10:51:47;24.00;92.70
64689;DHT22;62504;46.070;14.492;2023-05-29T10:54:14;24.00;92.90
64689;DHT22;62504;46.070;14.492;2023-05-29T10:56:40;24.00;93.20
64689;DHT22;62504;46.070;14.492;2023-05-29T10:59:08;23.90;92.20
64689;DHT22;62504;46.070;14.492;2023-05-29T11:01:33;23.90;91.30
64689;DHT22;62504;46.070;14.492;2023-05-29T11:06:44;24.10;91.30
64689;DHT22;62504;46.070;14.492;2023-05-29T11:09:37;24.10;92.70
64689;DHT22;62504;46.070;14.492;2023-05-29T11:12:16;23.80;91.20
64689;DHT22;62504;46.070;14.492;2023-05-29T11:14:55;23.80;90.50
64689;DHT22;62504;46.070;14.492;2023-05-29T11:20:07;23.90;90.50
64689;DHT22;62504;46.070;14.492;2023-05-29T11:25:25;23.80;91.20
64689;DHT22;62504;46.070;14.492;2023-05-29T11:27:52;23.90;90.80
64689;DHT22;62504;46.070;14.492;2023-05-29T11:30:18;24.00;92.00
64689;DHT22;62504;46.070;14.492;2023-05-29T11:32:45;24.00;92.50
64689;DHT22;62504;46.070;14.492;2023-05-29T11:35:12;24.20;91.90
64689;DHT22;62504;46.070;14.492;2023-05-29T11:37:43;24.10;91.80
64689;DHT22;62504;46.070;14.492;2023-05-29T11:40:12;24.00;91.90
64689;DHT22;62504;46.070;14.492;2023-05-29T11:42:47;24.00;92.10
64689;DHT22;62504;46.070;14.492;2023-05-29T11:45:17;24.00;91.60
64689;DHT22;62504;46.070;14.492;2023-05-29T11:48:02;24.00;92.20
64689;DHT22;62504;46.070;14.492;2023-05-29T11:50:32;23.80;91.80
64689;DHT22;62504;46.070;14.492;2023-05-29T11:52:58;23.90;90.70
64689;DHT22;62504;46.070;14.492;2023-05-29T11:55:25;23.90;91.50
64689;DHT22;62504;46.070;14.492;2023-05-29T11:57:58;24.10;90.60
64689;DHT22;62504;46.070;14.492;2023-05-29T12:00:24;24.00;91.50
64689;DHT22;62504;46.070;14.492;2023-05-29T12:02:51;24.00;90.70
64689;DHT22;62504;46.070;14.492;2023-05-29T12:05:18;24.00;91.50
64689;DHT22;62504;46.070;14.492;2023-05-29T12:08:01;23.90;92.00
64689;DHT22;62504;46.070;14.492;2023-05-29T12:10:29;24.00;92.20
64689;DHT22;62504;46.070;14.492;2023-05-29T12:12:59;24.10;90.80
64689;DHT22;62504;46.070;14.492;2023-05-29T12:15:26;24.10;91.10
64689;DHT22;62504;46.070;14.492;2023-05-29T12:17:53;24.10;91.30
64689;DHT22;62504;46.070;14.492;2023-05-29T12:20:22;24.20;90.80
64689;DHT22;62504;46.070;14.492;2023-05-29T12:22:48;24.10;90.80
64689;DHT22;62504;46.070;14.492;2023-05-29T12:25:19;24.10;90.50
64689;DHT22;62504;46.070;14.492;2023-05-29T12:27:46;24.20;89.60
64689;DHT22;62504;46.070;14.492;2023-05-29T12:32:45;24.20;90.50
64689;DHT22;62504;46.070;14.492;2023-05-29T12:35:21;24.30;90.40
64689;DHT22;62504;46.070;14.492;2023-05-29T12:37:58;24.30;90.20
64689;DHT22;62504;46.070;14.492;2023-05-29T12:40:34;24.30;90.40
64689;DHT22;62504;46.070;14.492;2023-05-29T12:43:07;24.30;88.80
64689;DHT22;62504;46.070;14.492;2023-05-29T12:45:36;24.30;87.80
64689;DHT22;62504;46.070;14.492;2023-05-29T12:48:03;24.40;89.80
64689;DHT22;62504;46.070;14.492;2023-05-29T12:50:37;24.30;90.10
64689;DHT22;62504;46.070;14.492;2023-05-29T12:53:11;24.30;89.70
64689;DHT22;62504;46.070;14.492;2023-05-29T12:55:38;24.30;88.70
64689;DHT22;62504;46.070;14.492;2023-05-29T12:58:06;24.30;89.60
64689;DHT22;62504;46.070;14.492;2023-05-29T13:00:33;24.40;90.30
64689;DHT22;62504;46.070;14.492;2023-05-29T13:02:59;24.30;89.20
64689;DHT22;62504;46.070;14.492;2023-05-29T13:05:26;24.30;89.90
64689;DHT22;62504;46.070;14.492;2023-05-29T13:07:52;24.40;88.80
64689;DHT22;62504;46.070;14.492;2023-05-29T13:10:18;24.30;87.80
64689;DHT22;62504;46.070;14.492;2023-05-29T13:12:45;24.20;87.80
64689;DHT22;62504;46.070;14.492;2023-05-29T13:15:12;24.40;87.50
64689;DHT22;62504;46.070;14.492;2023-05-29T13:17:38;24.40;86.20
64689;DHT22;62504;46.070;14.492;2023-05-29T13:20:13;24.40;87.40
64689;DHT22;62504;46.070;14.492;2023-05-29T13:22:40;24.40;86.40
64689;DHT22;62504;46.070;14.492;2023-05-29T13:25:07;24.50;86.60
64689;DHT22;62504;46.070;14.492;2023-05-29T13:27:35;24.50;87.60
64689;DHT22;62504;46.070;14.492;2023-05-29T13:30:03;24.20;85.60
64689;DHT22;62504;46.070;14.492;2023-05-29T13:32:29;24.50;86.10
64689;DHT22;62504;46.070;14.492;2023-05-29T13:34:55;24.40;86.70
64689;DHT22;62504;46.070;14.492;2023-05-29T13:37:21;24.50;86.40
64689;DHT22;62504;46.070;14.492;2023-05-29T13:39:46;24.60;85.80
64689;DHT22;62504;46.070;14.492;2023-05-29T13:42:12;24.50;85.60
64689;DHT22;62504;46.070;14.492;2023-05-29T13:44:38;24.60;85.60
64689;DHT22;62504;46.070;14.492;2023-05-29T13:47:05;24.50;85.20
64689;DHT22;62504;46.070;14.492;2023-05-29T13:49:31;24.50;85.50
64689;DHT22;62504;46.070;14.492;2023-05-29T13:51:57;24.50;85.00
64689;DHT22;62504;46.070;14.492;2023-05-29T13:54:22;24.50;84.80
64689;DHT22;62504;46.070;14.492;2023-05-29T13:56:48;24.50;87.60
64689;DHT22;62504;46.070;14.492;2023-05-29T13:59:14;24.50;85.00
64689;DHT22;62504;46.070;14.492;2023-05-29T14:01:41;24.50;84.70
64689;DHT22;62504;46.070;14.492;2023-05-29T14:04:06;24.60;84.20
64689;DHT22;62504;46.070;14.492;2023-05-29T14:06:33;24.50;83.90
64689;DHT22;62504;46.070;14.492;2023-05-29T14:08:59;24.40;85.70
64689;DHT22;62504;46.070;14.492;2023-05-29T14:11:25;24.30;86.60
64689;DHT22;62504;46.070;14.492;2023-05-29T14:13:52;24.40;86.50
64689;DHT22;62504;46.070;14.492;2023-05-29T14:16:17;24.30;87.60
64689;DHT22;62504;46.070;14.492;2023-05-29T14:18:43;24.40;86.60
64689;DHT22;62504;46.070;14.492;2023-05-29T14:21:09;24.50;86.80
64689;DHT22;62504;46.070;14.492;2023-05-29T14:23:36;24.50;88.70
64689;DHT22;62504;46.070;14.492;2023-05-29T14:26:02;24.60;85.70
64689;DHT22;62504;46.070;14.492;2023-05-29T14:28:27;24.50;84.60
64689;DHT22;62504;46.070;14.492;2023-05-29T14:30:53;24.50;85.70
64689;DHT22;62504;46.070;14.492;2023-05-29T14:33:19;24.50;87.00
64689;DHT22;62504;46.070;14.492;2023-05-29T14:35:44;24.60;86.30
64689;DHT22;62504;46.070;14.492;2023-05-29T14:38:10;24.60;87.30
64689;DHT22;62504;46.070;14.492;2023-05-29T14:40:36;24.60;87.50
64689;DHT22;62504;46.070;14.492;2023-05-29T14:43:02;24.60;87.10
64689;DHT22;62504;46.070;14.492;2023-05-29T14:45:28;24.50;88.20
64689;DHT22;62504;46.070;14.492;2023-05-29T14:47:54;24.50;88.30
64689;DHT22;62504;46.070;14.492;2023-05-29T14:50:20;24.40;88.00
64689;DHT22;62504;46.070;14.492;2023-05-29T14:52:45;24.40;87.80
64689;DHT22;62504;46.070;14.492;2023-05-29T14:55:13;24.40;87.10
64689;DHT22;62504;46.070;14.492;2023-05-29T14:57:40;24.40;86.60
64689;DHT22;62504;46.070;14.492;2023-05-29T15:00:07;24.40;87.20
64689;DHT22;62504;46.070;14.492;2023-05-29T15:02:33;24.60;87.90
64689;DHT22;62504;46.070;14.492;2023-05-29T15:04:59;24.50;86.10
64689;DHT22;62504;46.070;14.492;2023-05-29T15:07:25;24.40;87.20
64689;DHT22;62504;46.070;14.492;2023-05-29T15:09:51;24.30;88.10
64689;DHT22;62504;46.070;14.492;2023-05-29T15:12:17;24.30;89.00
64689;DHT22;62504;46.070;14.492;2023-05-29T15:14:42;24.30;89.50
64689;DHT22;62504;46.070;14.492;2023-05-29T15:17:08;24.30;90.30
64689;DHT22;62504;46.070;14.492;2023-05-29T15:19:33;24.30;88.90
64689;DHT22;62504;46.070;14.492;2023-05-29T15:21:59;24.30;89.00
64689;DHT22;62504;46.070;14.492;2023-05-29T15:24:25;24.30;88.20
64689;DHT22;62504;46.070;14.492;2023-05-29T15:26:50;24.30;87.40
64689;DHT22;62504;46.070;14.492;2023-05-29T15:29:16;24.30;87.60
64689;DHT22;62504;46.070;14.492;2023-05-29T15:31:42;24.30;88.60
64689;DHT22;62504;46.070;14.492;2023-05-29T15:34:08;24.30;89.60
64689;DHT22;62504;46.070;14.492;2023-05-29T15:36:34;24.30;91.10
64689;DHT22;62504;46.070;14.492;2023-05-29T15:39:02;24.30;91.00
64689;DHT22;62504;46.070;14.492;2023-05-29T15:41:28;24.20;90.60
64689;DHT22;62504;46.070;14.492;2023-05-29T15:43:58;24.20;91.30